Κάμερα προς Χιονοδρομικό webcam facing ski center


Κάμερα προς Νότο webcam facing south


Ραντάρ Κεραυνών blitzortung!


Ραντάρ Βροχής rain snow radar


Άλλες σελίδες καιρού:

Hotel Skamnos

Arachova Weather Station

Skamnos Weather Station

Skamnos Weather2

Arachova Weather2

WU Skamnos

WU Arachova


Γειτονικοί σταθμοί:

Parnassos Snow Forecast

Parnassos Snow Report

Kelaria 1950m

Kelaria 2240m

Fterolaka 2080m



No particular awareness of the weather is required.    There are no Weather-warnings

Εκθέσεις METAR

  
1089 - Arachova Meteo, Greece
Distance from station: Ν 10km
Updated: 26-04-2017 22:19
Λίγα σύννεφα
Λίγα σύννεφα  
 Ανεμος από ΒΔ
'Ανεμος: ΒΔ 4 km/h
Θερμοκρασία:  14°C
Σημείο Δρόσου:  7°C
Υγρασία:  63%
Βαρόμετρο:  1018 hPa
Νεφελώδης:  Λίγα σύννεφα
Visibility:  10 km
Cloud details:  Λίγα σύννεφα 823 m
2017/04/26 19:19 1089 261919Z 31502KT 9999 FEW027 14/07 Q1018
1155 - Arachova2, Greece
Distance from station: Ν 10km
Updated: 26-04-2017 22:19
Λίγα σύννεφα
Λίγα σύννεφα  
 Ανεμος από Δ
'Ανεμος: Δ 6 km/h
Θερμοκρασία:  12°C
Σημείο Δρόσου:  6°C
Υγρασία:  67%
Βαρόμετρο:  1020 hPa
Νεφελώδης:  Λίγα σύννεφα
Visibility:  10 km
Cloud details:  Λίγα σύννεφα 762 m
2017/04/26 19:19 1155 261919Z 27003KT 9999 FEW025 12/06 Q1020
1184 - Arachova VillaFiloxenia, Greece
Distance from station: Ν 10km
Updated: 26-04-2017 22:19
Λίγα σύννεφα
Λίγα σύννεφα  
 Ανεμος από calm
'Ανεμος: Άπνοια
Θερμοκρασία:  13°C
Σημείο Δρόσου:  7°C
Υγρασία:  67%
Βαρόμετρο:  1006 hPa
Νεφελώδης:  Λίγα σύννεφα
Visibility:  9 km
Cloud details:  Λίγα σύννεφα 732 m
2017/04/26 19:19 1184 261919Z 00000KT 9000 FEW024 13/07 Q1006
1250 - Parnassos Kelaria 1950m, Greece
Distance from station: Α 3km
Updated: 26-04-2017 22:19
Μερικώς νεφελώδης
Μερικώς νεφελώδης  
 Ανεμος από ΑΝΑ
'Ανεμος: ΑΝΑ 13 km/h
Θερμοκρασία:  6°C
Wind Chill:  3°C
Σημείο Δρόσου:  1°C
Υγρασία:  71%
Βαρόμετρο:  1022 hPa
Νεφελώδης:  Μερικώς νεφελώδης
Visibility:  9 km
Cloud details:  Μερικώς νεφελώδης 518 m
2017/04/26 19:19 1250 261919Z 11207KT 9000 SCT017 06/01 Q1022
1126 - Parnassos Fterolaka 2080m, Greece
Distance from station: Α 3km
Updated: 21-03-2015 01:04
NOT Current
Λίγα σύννεφα
Λίγα σύννεφα  
 Ανεμος από calm
'Ανεμος: Άπνοια
Θερμοκρασία:  -11°C
Σημείο Δρόσου:  -11°C
Υγρασία:  100%
Βαρόμετρο:  1019 hPa
Νεφελώδης:  Λίγα σύννεφα
Visibility:  6 km
Cloud details:  Λίγα σύννεφα 305 m
2015/03/20 23:04 1126 202304Z 00000KT 6000 FEW010 M11/M11 Q1019
1382 - Parnassos Helcules 2240m, Greece
Distance from station: Α 3km
Updated: 20-04-2015 13:20
NOT Current
Ομίχλη
Ομίχλη  
 Ανεμος από ΝΔ
'Ανεμος: ΝΔ 7 km/h
Θερμοκρασία:  1°C
Wind Chill:  -2°C
Σημείο Δρόσου:  1°C
Υγρασία:  100%
Βαρόμετρο:  1009 hPa
Περίληψη:  Ομίχλη
Visibility:  5 km
2015/04/20 10:20 1382 201020Z 22504KT 5000 FG 01/01 Q1009
1219 - Anrikyra, Greece
Distance from station: Ν 40km
Updated: 26-04-2017 22:19
Αίθριος
Αίθριος  
 Ανεμος από Α
'Ανεμος: Α 9 km/h
Θερμοκρασία:  17°C
Σημείο Δρόσου:  10°C
Υγρασία:  64%
Βαρόμετρο:  1018 hPa
Νεφελώδης:  Αίθριος
Visibility:  9 km
2017/04/26 19:19 1219 261919Z 09005KT 9000 SKC 17/10 Q1018
1015 - Galaxeidi, Greece
Distance from station: Ν 40km
Updated: 26-04-2017 01:18
NOT Current
Αίθριος
Αίθριος  
 Ανεμος από ΒΒΔ
'Ανεμος: ΒΒΔ 9 km/h
Θερμοκρασία:  16°C
Σημείο Δρόσου:  9°C
Υγρασία:  63%
Βαρόμετρο:  1030 hPa
Νεφελώδης:  Αίθριος
Visibility:  9 km
2017/04/25 22:18 1015 252218Z 33705KT 9000 SKC 16/09 Q1030
1088 - Amfikleia, Greece
Distance from station: Β 10km
Updated: 26-04-2017 22:19
Λίγα σύννεφα
Λίγα σύννεφα  
 Ανεμος από ΝΔ
'Ανεμος: ΝΔ 2 km/h
Θερμοκρασία:  14°C
Σημείο Δρόσου:  8°C
Υγρασία:  67%
Βαρόμετρο:  1018 hPa
Νεφελώδης:  Λίγα σύννεφα
Visibility:  10 km
Cloud details:  Λίγα σύννεφα 792 m
2017/04/26 19:19 1088 261919Z 22501KT 9999 FEW026 14/08 Q1018
1337 - Polydroso, Greece
Distance from station: Β 10km
Updated: 26-04-2017 22:19
Λίγα σύννεφα
Λίγα σύννεφα  
 Ανεμος από calm
'Ανεμος: Άπνοια
Θερμοκρασία:  14°C
Σημείο Δρόσου:  9°C
Υγρασία:  72%
Βαρόμετρο:  1018 hPa
Νεφελώδης:  Λίγα σύννεφα
Visibility:  9 km
Cloud details:  Λίγα σύννεφα 579 m
2017/04/26 19:19 1337 261919Z 00000KT 9000 FEW019 14/09 Q1018

Αρχικά scripts από  Saratoga-weather.org Adapted for the template by  Weerstation Leuven